sensor_id;sensor_type;location;lat;lon;timestamp;P1;durP1;ratioP1;P2;durP2;ratioP2
78740;SDS011;68062;48.726;9.370;2024-03-23T00:53:41;9.87;;;7.77;;
78740;SDS011;68062;48.726;9.370;2024-03-23T00:56:08;11.57;;;8.13;;
78740;SDS011;68062;48.726;9.370;2024-03-23T00:58:34;8.23;;;7.73;;
78740;SDS011;68062;48.726;9.370;2024-03-23T01:01:01;9.17;;;8.30;;
78740;SDS011;68062;48.726;9.370;2024-03-23T01:03:28;8.23;;;7.70;;
78740;SDS011;68062;48.726;9.370;2024-03-23T01:05:58;9.97;;;8.00;;
78740;SDS011;68062;48.726;9.370;2024-03-23T01:08:25;9.63;;;7.80;;
78740;SDS011;68062;48.726;9.370;2024-03-23T01:10:56;9.53;;;7.97;;
78740;SDS011;68062;48.726;9.370;2024-03-23T01:13:22;10.67;;;8.23;;
78740;SDS011;68062;48.726;9.370;2024-03-23T01:15:49;9.90;;;8.30;;
78740;SDS011;68062;48.726;9.370;2024-03-23T01:18:15;10.50;;;7.60;;
78740;SDS011;68062;48.726;9.370;2024-03-23T01:20:41;9.10;;;7.50;;
78740;SDS011;68062;48.726;9.370;2024-03-23T01:23:07;10.73;;;7.67;;
78740;SDS011;68062;48.726;9.370;2024-03-23T01:25:34;10.80;;;7.40;;
78740;SDS011;68062;48.726;9.370;2024-03-23T01:28:01;9.60;;;7.40;;
78740;SDS011;68062;48.726;9.370;2024-03-23T01:30:28;9.77;;;7.57;;
78740;SDS011;68062;48.726;9.370;2024-03-23T01:32:53;11.00;;;8.00;;
78740;SDS011;68062;48.726;9.370;2024-03-23T01:35:20;8.33;;;7.43;;
78740;SDS011;68062;48.726;9.370;2024-03-23T01:37:46;9.00;;;6.70;;
78740;SDS011;68062;48.726;9.370;2024-03-23T01:40:13;9.70;;;9.20;;
78740;SDS011;68062;48.726;9.370;2024-03-23T01:42:38;11.60;;;8.90;;
78740;SDS011;68062;48.726;9.370;2024-03-23T01:45:08;8.93;;;7.73;;
78740;SDS011;68062;48.726;9.370;2024-03-23T01:47:35;7.90;;;7.17;;
78740;SDS011;68062;48.726;9.370;2024-03-23T01:50:02;11.00;;;7.37;;
78740;SDS011;68062;48.726;9.370;2024-03-23T01:52:28;9.77;;;7.60;;
78740;SDS011;68062;48.726;9.370;2024-03-23T01:54:55;8.83;;;7.90;;
78740;SDS011;68062;48.726;9.370;2024-03-23T01:57:21;8.63;;;7.60;;
78740;SDS011;68062;48.726;9.370;2024-03-23T01:59:48;8.03;;;7.50;;
78740;SDS011;68062;48.726;9.370;2024-03-23T02:02:17;10.40;;;7.70;;
78740;SDS011;68062;48.726;9.370;2024-03-23T02:04:45;9.00;;;8.30;;
78740;SDS011;68062;48.726;9.370;2024-03-23T02:07:11;8.80;;;7.73;;
78740;SDS011;68062;48.726;9.370;2024-03-23T02:09:38;10.43;;;7.27;;
78740;SDS011;68062;48.726;9.370;2024-03-23T02:12:04;11.23;;;7.50;;
78740;SDS011;68062;48.726;9.370;2024-03-23T02:14:31;10.40;;;8.00;;
78740;SDS011;68062;48.726;9.370;2024-03-23T02:16:58;10.70;;;8.37;;
78740;SDS011;68062;48.726;9.370;2024-03-23T02:19:26;8.40;;;7.67;;
78740;SDS011;68062;48.726;9.370;2024-03-23T02:21:52;10.10;;;7.60;;
78740;SDS011;68062;48.726;9.370;2024-03-23T02:24:20;11.47;;;8.13;;
78740;SDS011;68062;48.726;9.370;2024-03-23T02:26:45;11.43;;;8.40;;
78740;SDS011;68062;48.726;9.370;2024-03-23T02:29:14;9.60;;;8.10;;
78740;SDS011;68062;48.726;9.370;2024-03-23T02:31:40;9.30;;;7.90;;
78740;SDS011;68062;48.726;9.370;2024-03-23T02:34:06;7.70;;;7.30;;
78740;SDS011;68062;48.726;9.370;2024-03-23T02:36:32;12.07;;;8.17;;
78740;SDS011;68062;48.726;9.370;2024-03-23T02:38:59;8.63;;;7.33;;
78740;SDS011;68062;48.726;9.370;2024-03-23T02:41:26;7.67;;;7.10;;
78740;SDS011;68062;48.726;9.370;2024-03-23T02:43:53;9.37;;;8.20;;
78740;SDS011;68062;48.726;9.370;2024-03-23T02:46:19;9.70;;;7.93;;
78740;SDS011;68062;48.726;9.370;2024-03-23T02:48:48;9.77;;;8.27;;
78740;SDS011;68062;48.726;9.370;2024-03-23T02:51:14;8.83;;;7.80;;
78740;SDS011;68062;48.726;9.370;2024-03-23T02:53:41;8.57;;;7.80;;
78740;SDS011;68062;48.726;9.370;2024-03-23T02:56:06;7.77;;;7.40;;
78740;SDS011;68062;48.726;9.370;2024-03-23T02:58:35;9.13;;;8.03;;
78740;SDS011;68062;48.726;9.370;2024-03-23T03:01:00;9.17;;;8.60;;
78740;SDS011;68062;48.726;9.370;2024-03-23T03:03:27;9.90;;;8.70;;
78740;SDS011;68062;48.726;9.370;2024-03-23T03:05:54;10.20;;;7.70;;
78740;SDS011;68062;48.726;9.370;2024-03-23T03:08:21;9.20;;;7.50;;
78740;SDS011;68062;48.726;9.370;2024-03-23T03:10:47;7.67;;;7.10;;
78740;SDS011;68062;48.726;9.370;2024-03-23T03:13:14;12.57;;;8.77;;
78740;SDS011;68062;48.726;9.370;2024-03-23T03:15:42;7.60;;;7.17;;
78740;SDS011;68062;48.726;9.370;2024-03-23T03:18:09;9.27;;;7.93;;
78740;SDS011;68062;48.726;9.370;2024-03-23T03:20:36;8.90;;;8.07;;
78740;SDS011;68062;48.726;9.370;2024-03-23T03:23:04;8.63;;;8.07;;
78740;SDS011;68062;48.726;9.370;2024-03-23T03:25:30;9.00;;;7.63;;
78740;SDS011;68062;48.726;9.370;2024-03-23T03:27:57;8.20;;;7.40;;
78740;SDS011;68062;48.726;9.370;2024-03-23T03:30:23;7.70;;;6.77;;
78740;SDS011;68062;48.726;9.370;2024-03-23T03:32:53;9.63;;;7.80;;
78740;SDS011;68062;48.726;9.370;2024-03-23T03:35:19;10.70;;;8.80;;
78740;SDS011;68062;48.726;9.370;2024-03-23T03:37:46;8.83;;;7.77;;
78740;SDS011;68062;48.726;9.370;2024-03-23T03:40:12;12.63;;;8.03;;
78740;SDS011;68062;48.726;9.370;2024-03-23T03:42:40;10.57;;;8.00;;
78740;SDS011;68062;48.726;9.370;2024-03-23T03:45:06;10.60;;;8.60;;
78740;SDS011;68062;48.726;9.370;2024-03-23T03:47:33;10.43;;;7.57;;
78740;SDS011;68062;48.726;9.370;2024-03-23T03:50:00;9.00;;;8.23;;
78740;SDS011;68062;48.726;9.370;2024-03-23T03:52:27;9.57;;;7.53;;
78740;SDS011;68062;48.726;9.370;2024-03-23T03:54:55;12.33;;;7.93;;
78740;SDS011;68062;48.726;9.370;2024-03-23T03:57:27;10.00;;;7.77;;
78740;SDS011;68062;48.726;9.370;2024-03-23T03:59:53;10.57;;;7.80;;
78740;SDS011;68062;48.726;9.370;2024-03-23T04:02:20;8.97;;;8.23;;
78740;SDS011;68062;48.726;9.370;2024-03-23T04:04:46;9.53;;;7.53;;
78740;SDS011;68062;48.726;9.370;2024-03-23T04:07:14;9.73;;;8.53;;
78740;SDS011;68062;48.726;9.370;2024-03-23T04:09:39;10.80;;;7.93;;
78740;SDS011;68062;48.726;9.370;2024-03-23T04:12:06;11.87;;;8.03;;
78740;SDS011;68062;48.726;9.370;2024-03-23T04:14:32;7.10;;;6.43;;
78740;SDS011;68062;48.726;9.370;2024-03-23T04:16:59;9.80;;;7.57;;
78740;SDS011;68062;48.726;9.370;2024-03-23T04:19:25;8.60;;;8.10;;
78740;SDS011;68062;48.726;9.370;2024-03-23T04:21:51;9.13;;;7.23;;
78740;SDS011;68062;48.726;9.370;2024-03-23T04:24:19;9.87;;;9.33;;
78740;SDS011;68062;48.726;9.370;2024-03-23T04:26:47;8.27;;;7.83;;
78740;SDS011;68062;48.726;9.370;2024-03-23T04:29:13;10.00;;;7.80;;
78740;SDS011;68062;48.726;9.370;2024-03-23T04:31:40;7.17;;;6.77;;
78740;SDS011;68062;48.726;9.370;2024-03-23T04:34:05;7.10;;;6.73;;
78740;SDS011;68062;48.726;9.370;2024-03-23T04:36:32;7.67;;;6.23;;
78740;SDS011;68062;48.726;9.370;2024-03-23T04:38:59;6.53;;;6.07;;
78740;SDS011;68062;48.726;9.370;2024-03-23T04:41:28;9.73;;;7.20;;
78740;SDS011;68062;48.726;9.370;2024-03-23T04:43:55;8.90;;;7.10;;
78740;SDS011;68062;48.726;9.370;2024-03-23T04:46:21;8.20;;;6.83;;
78740;SDS011;68062;48.726;9.370;2024-03-23T04:48:48;7.80;;;6.23;;
78740;SDS011;68062;48.726;9.370;2024-03-23T04:51:20;7.13;;;6.73;;
78740;SDS011;68062;48.726;9.370;2024-03-23T04:53:47;8.40;;;7.30;;
78740;SDS011;68062;48.726;9.370;2024-03-23T04:56:13;8.83;;;7.37;;
78740;SDS011;68062;48.726;9.370;2024-03-23T04:58:41;8.53;;;6.93;;
78740;SDS011;68062;48.726;9.370;2024-03-23T05:01:07;9.53;;;7.53;;
78740;SDS011;68062;48.726;9.370;2024-03-23T05:03:34;11.23;;;8.07;;
78740;SDS011;68062;48.726;9.370;2024-03-23T05:06:00;11.50;;;8.80;;
78740;SDS011;68062;48.726;9.370;2024-03-23T05:08:27;12.20;;;9.00;;
78740;SDS011;68062;48.726;9.370;2024-03-23T05:10:54;9.77;;;8.83;;
78740;SDS011;68062;48.726;9.370;2024-03-23T05:13:20;8.93;;;8.47;;
78740;SDS011;68062;48.726;9.370;2024-03-23T05:15:51;9.57;;;9.07;;
78740;SDS011;68062;48.726;9.370;2024-03-23T05:18:19;13.70;;;10.57;;
78740;SDS011;68062;48.726;9.370;2024-03-23T05:20:44;21.80;;;11.27;;
78740;SDS011;68062;48.726;9.370;2024-03-23T05:23:11;15.10;;;12.00;;
78740;SDS011;68062;48.726;9.370;2024-03-23T05:25:37;15.83;;;12.67;;
78740;SDS011;68062;48.726;9.370;2024-03-23T05:28:03;19.23;;;13.43;;
78740;SDS011;68062;48.726;9.370;2024-03-23T05:30:30;17.67;;;13.63;;
78740;SDS011;68062;48.726;9.370;2024-03-23T05:32:58;19.80;;;13.87;;
78740;SDS011;68062;48.726;9.370;2024-03-23T05:35:24;19.37;;;12.83;;
78740;SDS011;68062;48.726;9.370;2024-03-23T05:37:51;18.37;;;14.43;;
78740;SDS011;68062;48.726;9.370;2024-03-23T05:40:17;16.73;;;12.87;;
78740;SDS011;68062;48.726;9.370;2024-03-23T05:42:44;19.20;;;13.93;;
78740;SDS011;68062;48.726;9.370;2024-03-23T05:45:09;19.43;;;13.63;;
78740;SDS011;68062;48.726;9.370;2024-03-23T05:47:36;18.73;;;12.50;;
78740;SDS011;68062;48.726;9.370;2024-03-23T05:50:04;19.20;;;13.70;;
78740;SDS011;68062;48.726;9.370;2024-03-23T05:52:31;19.33;;;12.60;;
78740;SDS011;68062;48.726;9.370;2024-03-23T05:54:57;15.93;;;12.90;;
78740;SDS011;68062;48.726;9.370;2024-03-23T05:57:24;19.33;;;14.40;;
78740;SDS011;68062;48.726;9.370;2024-03-23T05:59:51;20.07;;;13.93;;
78740;SDS011;68062;48.726;9.370;2024-03-23T06:02:18;17.40;;;12.67;;
78740;SDS011;68062;48.726;9.370;2024-03-23T06:04:45;21.87;;;13.60;;
78740;SDS011;68062;48.726;9.370;2024-03-23T06:07:13;20.87;;;13.33;;
78740;SDS011;68062;48.726;9.370;2024-03-23T06:09:39;17.80;;;13.23;;
78740;SDS011;68062;48.726;9.370;2024-03-23T06:12:06;17.80;;;13.67;;
78740;SDS011;68062;48.726;9.370;2024-03-23T06:14:32;19.53;;;14.43;;
78740;SDS011;68062;48.726;9.370;2024-03-23T06:16:59;18.30;;;11.87;;
78740;SDS011;68062;48.726;9.370;2024-03-23T06:19:25;14.60;;;10.37;;
78740;SDS011;68062;48.726;9.370;2024-03-23T06:21:52;12.53;;;9.93;;
78740;SDS011;68062;48.726;9.370;2024-03-23T06:24:20;12.57;;;7.80;;
78740;SDS011;68062;48.726;9.370;2024-03-23T06:26:47;8.07;;;5.60;;
78740;SDS011;68062;48.726;9.370;2024-03-23T06:29:13;8.70;;;5.97;;
78740;SDS011;68062;48.726;9.370;2024-03-23T06:31:39;5.60;;;4.10;;
78740;SDS011;68062;48.726;9.370;2024-03-23T06:34:05;4.90;;;3.60;;
78740;SDS011;68062;48.726;9.370;2024-03-23T06:36:32;6.77;;;4.00;;
78740;SDS011;68062;48.726;9.370;2024-03-23T06:38:58;6.50;;;3.90;;
78740;SDS011;68062;48.726;9.370;2024-03-23T06:41:26;4.43;;;3.47;;
78740;SDS011;68062;48.726;9.370;2024-03-23T06:43:52;5.50;;;3.30;;
78740;SDS011;68062;48.726;9.370;2024-03-23T06:46:19;3.93;;;3.50;;
78740;SDS011;68062;48.726;9.370;2024-03-23T06:48:45;3.90;;;3.47;;
78740;SDS011;68062;48.726;9.370;2024-03-23T06:51:12;2.87;;;2.00;;
78740;SDS011;68062;48.726;9.370;2024-03-23T06:53:37;2.43;;;1.70;;
78740;SDS011;68062;48.726;9.370;2024-03-23T06:56:04;4.47;;;1.70;;
78740;SDS011;68062;48.726;9.370;2024-03-23T06:58:32;3.27;;;1.80;;
78740;SDS011;68062;48.726;9.370;2024-03-23T07:00:59;2.43;;;1.67;;
78740;SDS011;68062;48.726;9.370;2024-03-23T07:03:25;2.30;;;1.07;;
78740;SDS011;68062;48.726;9.370;2024-03-23T07:05:52;1.63;;;0.80;;
78740;SDS011;68062;48.726;9.370;2024-03-23T07:08:18;0.67;;;0.50;;
78740;SDS011;68062;48.726;9.370;2024-03-23T07:10:47;0.93;;;0.60;;
78740;SDS011;68062;48.726;9.370;2024-03-23T07:13:13;1.50;;;0.90;;
78740;SDS011;68062;48.726;9.370;2024-03-23T07:15:41;0.50;;;0.50;;
78740;SDS011;68062;48.726;9.370;2024-03-23T07:18:07;1.03;;;0.90;;
78740;SDS011;68062;48.726;9.370;2024-03-23T07:20:34;1.20;;;0.60;;
78740;SDS011;68062;48.726;9.370;2024-03-23T07:22:59;1.23;;;1.00;;
78740;SDS011;68062;48.726;9.370;2024-03-23T07:25:26;0.87;;;0.77;;
78740;SDS011;68062;48.726;9.370;2024-03-23T07:27:53;3.10;;;1.90;;
78740;SDS011;68062;48.726;9.370;2024-03-23T07:30:20;0.90;;;0.67;;
78740;SDS011;68062;48.726;9.370;2024-03-23T07:32:47;2.47;;;2.33;;
78740;SDS011;68062;48.726;9.370;2024-03-23T07:35:14;3.83;;;2.20;;
78740;SDS011;68062;48.726;9.370;2024-03-23T07:37:40;1.70;;;1.37;;
78740;SDS011;68062;48.726;9.370;2024-03-23T07:40:08;4.20;;;2.10;;
78740;SDS011;68062;48.726;9.370;2024-03-23T07:42:35;1.93;;;1.70;;
78740;SDS011;68062;48.726;9.370;2024-03-23T07:45:02;1.60;;;1.07;;
78740;SDS011;68062;48.726;9.370;2024-03-23T07:47:28;2.30;;;1.27;;
78740;SDS011;68062;48.726;9.370;2024-03-23T07:49:56;3.00;;;2.53;;
78740;SDS011;68062;48.726;9.370;2024-03-23T07:55:14;3.40;;;1.73;;
78740;SDS011;68062;48.726;9.370;2024-03-23T07:57:40;2.40;;;2.10;;
78740;SDS011;68062;48.726;9.370;2024-03-23T08:00:07;2.43;;;1.37;;
78740;SDS011;68062;48.726;9.370;2024-03-23T08:02:33;4.60;;;3.20;;
78740;SDS011;68062;48.726;9.370;2024-03-23T08:05:01;2.40;;;1.40;;
78740;SDS011;68062;48.726;9.370;2024-03-23T08:07:27;2.87;;;1.70;;
78740;SDS011;68062;48.726;9.370;2024-03-23T08:09:54;1.33;;;0.50;;
78740;SDS011;68062;48.726;9.370;2024-03-23T08:12:20;1.17;;;0.90;;
78740;SDS011;68062;48.726;9.370;2024-03-23T08:14:47;2.23;;;1.20;;
78740;SDS011;68062;48.726;9.370;2024-03-23T08:17:13;1.47;;;1.13;;
78740;SDS011;68062;48.726;9.370;2024-03-23T08:19:39;4.90;;;3.23;;
78740;SDS011;68062;48.726;9.370;2024-03-23T08:22:06;2.00;;;1.70;;
78740;SDS011;68062;48.726;9.370;2024-03-23T08:24:34;4.97;;;2.60;;
78740;SDS011;68062;48.726;9.370;2024-03-23T08:27:00;3.37;;;2.20;;
78740;SDS011;68062;48.726;9.370;2024-03-23T08:29:27;3.43;;;2.50;;
78740;SDS011;68062;48.726;9.370;2024-03-23T08:31:52;3.80;;;2.40;;
78740;SDS011;68062;48.726;9.370;2024-03-23T08:34:19;2.13;;;1.37;;
78740;SDS011;68062;48.726;9.370;2024-03-23T08:36:45;2.00;;;1.83;;
78740;SDS011;68062;48.726;9.370;2024-03-23T08:39:13;6.50;;;3.40;;
78740;SDS011;68062;48.726;9.370;2024-03-23T08:41:39;2.93;;;1.97;;
78740;SDS011;68062;48.726;9.370;2024-03-23T08:44:08;2.53;;;1.63;;
78740;SDS011;68062;48.726;9.370;2024-03-23T08:46:34;7.50;;;4.50;;
78740;SDS011;68062;48.726;9.370;2024-03-23T08:49:01;4.20;;;2.90;;
78740;SDS011;68062;48.726;9.370;2024-03-23T08:51:26;1.93;;;1.70;;
78740;SDS011;68062;48.726;9.370;2024-03-23T08:53:53;3.33;;;2.33;;
78740;SDS011;68062;48.726;9.370;2024-03-23T08:56:20;1.20;;;1.13;;
78740;SDS011;68062;48.726;9.370;2024-03-23T08:58:47;1.50;;;1.23;;
78740;SDS011;68062;48.726;9.370;2024-03-23T09:01:13;2.43;;;1.37;;
78740;SDS011;68062;48.726;9.370;2024-03-23T09:03:40;1.37;;;1.27;;
78740;SDS011;68062;48.726;9.370;2024-03-23T09:06:06;3.50;;;1.00;;
78740;SDS011;68062;48.726;9.370;2024-03-23T09:08:34;2.47;;;0.90;;
78740;SDS011;68062;48.726;9.370;2024-03-23T09:11:03;3.20;;;2.10;;
78740;SDS011;68062;48.726;9.370;2024-03-23T09:13:32;2.63;;;1.63;;
78740;SDS011;68062;48.726;9.370;2024-03-23T09:15:58;1.83;;;1.80;;
78740;SDS011;68062;48.726;9.370;2024-03-23T09:18:25;3.07;;;2.10;;
78740;SDS011;68062;48.726;9.370;2024-03-23T09:20:51;6.40;;;4.50;;
78740;SDS011;68062;48.726;9.370;2024-03-23T09:23:18;4.70;;;2.00;;
78740;SDS011;68062;48.726;9.370;2024-03-23T09:25:44;6.40;;;3.13;;
78740;SDS011;68062;48.726;9.370;2024-03-23T09:28:11;4.87;;;2.17;;
78740;SDS011;68062;48.726;9.370;2024-03-23T09:30:38;4.40;;;1.97;;
78740;SDS011;68062;48.726;9.370;2024-03-23T09:33:07;4.97;;;2.27;;
78740;SDS011;68062;48.726;9.370;2024-03-23T09:35:36;5.40;;;3.00;;
78740;SDS011;68062;48.726;9.370;2024-03-23T09:38:03;3.60;;;2.67;;
78740;SDS011;68062;48.726;9.370;2024-03-23T09:40:29;5.93;;;2.70;;
78740;SDS011;68062;48.726;9.370;2024-03-23T09:42:56;5.10;;;2.80;;
78740;SDS011;68062;48.726;9.370;2024-03-23T09:45:26;7.10;;;2.80;;
78740;SDS011;68062;48.726;9.370;2024-03-23T09:47:54;7.47;;;2.77;;
78740;SDS011;68062;48.726;9.370;2024-03-23T09:50:21;6.80;;;2.47;;
78740;SDS011;68062;48.726;9.370;2024-03-23T09:52:48;7.53;;;2.70;;
78740;SDS011;68062;48.726;9.370;2024-03-23T09:55:14;5.03;;;2.63;;
78740;SDS011;68062;48.726;9.370;2024-03-23T09:57:41;2.17;;;2.00;;
78740;SDS011;68062;48.726;9.370;2024-03-23T10:00:07;4.93;;;3.07;;
78740;SDS011;68062;48.726;9.370;2024-03-23T10:02:35;3.97;;;3.30;;
78740;SDS011;68062;48.726;9.370;2024-03-23T10:05:02;6.50;;;3.03;;
78740;SDS011;68062;48.726;9.370;2024-03-23T10:07:30;4.60;;;2.47;;
78740;SDS011;68062;48.726;9.370;2024-03-23T10:09:55;5.93;;;2.80;;
78740;SDS011;68062;48.726;9.370;2024-03-23T10:12:23;4.20;;;2.83;;
78740;SDS011;68062;48.726;9.370;2024-03-23T10:14:50;3.50;;;2.83;;
78740;SDS011;68062;48.726;9.370;2024-03-23T10:17:17;3.90;;;2.97;;
78740;SDS011;68062;48.726;9.370;2024-03-23T10:19:44;6.77;;;3.00;;
78740;SDS011;68062;48.726;9.370;2024-03-23T10:22:13;5.17;;;3.10;;
78740;SDS011;68062;48.726;9.370;2024-03-23T10:24:43;6.80;;;3.03;;
78740;SDS011;68062;48.726;9.370;2024-03-23T10:27:10;5.20;;;3.43;;
78740;SDS011;68062;48.726;9.370;2024-03-23T10:29:40;5.57;;;3.10;;
78740;SDS011;68062;48.726;9.370;2024-03-23T10:32:07;4.67;;;3.27;;
78740;SDS011;68062;48.726;9.370;2024-03-23T10:34:34;6.57;;;3.20;;
78740;SDS011;68062;48.726;9.370;2024-03-23T10:37:02;4.13;;;2.83;;
78740;SDS011;68062;48.726;9.370;2024-03-23T10:39:31;5.20;;;3.40;;
78740;SDS011;68062;48.726;9.370;2024-03-23T10:42:00;5.83;;;3.03;;
78740;SDS011;68062;48.726;9.370;2024-03-23T10:44:27;6.53;;;3.13;;
78740;SDS011;68062;48.726;9.370;2024-03-23T10:46:56;5.87;;;3.33;;
78740;SDS011;68062;48.726;9.370;2024-03-23T10:49:25;4.60;;;3.10;;
78740;SDS011;68062;48.726;9.370;2024-03-23T10:51:55;10.70;;;3.40;;
78740;SDS011;68062;48.726;9.370;2024-03-23T10:54:22;5.47;;;2.27;;
78740;SDS011;68062;48.726;9.370;2024-03-23T10:56:53;5.27;;;2.73;;
78740;SDS011;68062;48.726;9.370;2024-03-23T10:59:23;5.17;;;3.20;;
78740;SDS011;68062;48.726;9.370;2024-03-23T11:01:54;5.60;;;3.20;;
78740;SDS011;68062;48.726;9.370;2024-03-23T11:04:29;7.47;;;3.03;;
78740;SDS011;68062;48.726;9.370;2024-03-23T11:06:56;6.77;;;3.10;;
78740;SDS011;68062;48.726;9.370;2024-03-23T11:09:40;6.40;;;3.67;;
78740;SDS011;68062;48.726;9.370;2024-03-23T11:12:26;9.60;;;3.70;;
78740;SDS011;68062;48.726;9.370;2024-03-23T11:14:52;9.63;;;4.83;;
78740;SDS011;68062;48.726;9.370;2024-03-23T11:17:21;5.07;;;3.27;;
78740;SDS011;68062;48.726;9.370;2024-03-23T11:19:53;3.60;;;2.70;;
78740;SDS011;68062;48.726;9.370;2024-03-23T11:22:37;2.80;;;1.90;;
78740;SDS011;68062;48.726;9.370;2024-03-23T11:25:11;3.90;;;1.73;;
78740;SDS011;68062;48.726;9.370;2024-03-23T11:27:43;2.87;;;1.90;;
78740;SDS011;68062;48.726;9.370;2024-03-23T11:30:11;2.73;;;2.10;;
78740;SDS011;68062;48.726;9.370;2024-03-23T11:32:42;2.37;;;2.10;;
78740;SDS011;68062;48.726;9.370;2024-03-23T11:35:09;3.03;;;1.97;;
78740;SDS011;68062;48.726;9.370;2024-03-23T11:37:36;2.80;;;2.53;;
78740;SDS011;68062;48.726;9.370;2024-03-23T11:40:19;5.70;;;2.70;;
78740;SDS011;68062;48.726;9.370;2024-03-23T11:42:47;4.43;;;3.03;;
78740;SDS011;68062;48.726;9.370;2024-03-23T11:45:20;3.90;;;1.93;;
78740;SDS011;68062;48.726;9.370;2024-03-23T11:47:47;9.23;;;3.37;;
78740;SDS011;68062;48.726;9.370;2024-03-23T11:50:18;6.13;;;2.80;;
78740;SDS011;68062;48.726;9.370;2024-03-23T11:52:46;3.60;;;2.73;;
78740;SDS011;68062;48.726;9.370;2024-03-23T11:55:12;2.30;;;2.17;;
78740;SDS011;68062;48.726;9.370;2024-03-23T11:57:39;2.37;;;2.07;;
78740;SDS011;68062;48.726;9.370;2024-03-23T12:03:00;3.73;;;2.43;;
78740;SDS011;68062;48.726;9.370;2024-03-23T12:05:28;3.67;;;2.40;;
78740;SDS011;68062;48.726;9.370;2024-03-23T12:07:54;4.83;;;2.80;;
78740;SDS011;68062;48.726;9.370;2024-03-23T12:10:21;6.40;;;2.40;;
78740;SDS011;68062;48.726;9.370;2024-03-23T12:12:58;3.47;;;2.50;;
78740;SDS011;68062;48.726;9.370;2024-03-23T12:15:26;3.30;;;2.27;;
78740;SDS011;68062;48.726;9.370;2024-03-23T12:17:57;5.70;;;2.50;;
78740;SDS011;68062;48.726;9.370;2024-03-23T12:20:33;6.60;;;2.13;;
78740;SDS011;68062;48.726;9.370;2024-03-23T12:23:09;4.33;;;2.20;;
78740;SDS011;68062;48.726;9.370;2024-03-23T12:25:37;5.00;;;2.20;;
78740;SDS011;68062;48.726;9.370;2024-03-23T12:28:04;3.70;;;1.97;;
78740;SDS011;68062;48.726;9.370;2024-03-23T12:30:35;8.00;;;2.37;;
78740;SDS011;68062;48.726;9.370;2024-03-23T12:33:04;2.80;;;2.03;;
78740;SDS011;68062;48.726;9.370;2024-03-23T12:35:32;3.73;;;1.90;;
78740;SDS011;68062;48.726;9.370;2024-03-23T12:37:58;5.03;;;1.67;;
78740;SDS011;68062;48.726;9.370;2024-03-23T12:40:26;3.27;;;2.40;;
78740;SDS011;68062;48.726;9.370;2024-03-23T12:42:53;3.53;;;1.70;;
78740;SDS011;68062;48.726;9.370;2024-03-23T12:45:19;2.70;;;1.70;;
78740;SDS011;68062;48.726;9.370;2024-03-23T12:47:45;2.10;;;1.80;;
78740;SDS011;68062;48.726;9.370;2024-03-23T12:50:12;2.90;;;1.53;;
78740;SDS011;68062;48.726;9.370;2024-03-23T12:52:39;5.37;;;1.93;;
78740;SDS011;68062;48.726;9.370;2024-03-23T12:57:34;5.07;;;2.03;;
78740;SDS011;68062;48.726;9.370;2024-03-23T13:00:02;4.20;;;1.90;;
78740;SDS011;68062;48.726;9.370;2024-03-23T13:02:29;6.30;;;2.00;;
78740;SDS011;68062;48.726;9.370;2024-03-23T13:04:56;2.90;;;2.23;;
78740;SDS011;68062;48.726;9.370;2024-03-23T13:07:22;6.57;;;2.10;;
78740;SDS011;68062;48.726;9.370;2024-03-23T13:09:51;4.03;;;1.70;;
78740;SDS011;68062;48.726;9.370;2024-03-23T13:12:17;6.03;;;2.20;;
78740;SDS011;68062;48.726;9.370;2024-03-23T13:14:45;6.07;;;2.63;;
78740;SDS011;68062;48.726;9.370;2024-03-23T13:17:11;3.73;;;1.97;;
78740;SDS011;68062;48.726;9.370;2024-03-23T13:19:38;6.17;;;2.40;;
78740;SDS011;68062;48.726;9.370;2024-03-23T13:22:04;3.57;;;1.40;;
78740;SDS011;68062;48.726;9.370;2024-03-23T13:24:31;5.53;;;2.30;;
78740;SDS011;68062;48.726;9.370;2024-03-23T13:26:58;7.10;;;2.53;;
78740;SDS011;68062;48.726;9.370;2024-03-23T13:29:25;5.13;;;2.00;;
78740;SDS011;68062;48.726;9.370;2024-03-23T13:31:52;5.37;;;2.10;;
78740;SDS011;68062;48.726;9.370;2024-03-23T13:34:19;4.27;;;2.03;;
78740;SDS011;68062;48.726;9.370;2024-03-23T13:36:45;6.37;;;2.40;;
78740;SDS011;68062;48.726;9.370;2024-03-23T13:39:13;5.77;;;2.90;;
78740;SDS011;68062;48.726;9.370;2024-03-23T13:41:41;4.60;;;2.50;;
78740;SDS011;68062;48.726;9.370;2024-03-23T13:44:10;3.07;;;2.30;;
78740;SDS011;68062;48.726;9.370;2024-03-23T13:46:37;5.10;;;2.00;;
78740;SDS011;68062;48.726;9.370;2024-03-23T13:49:04;3.23;;;1.73;;
78740;SDS011;68062;48.726;9.370;2024-03-23T13:51:31;2.80;;;1.50;;
78740;SDS011;68062;48.726;9.370;2024-03-23T13:53:58;7.77;;;2.97;;
78740;SDS011;68062;48.726;9.370;2024-03-23T13:56:26;2.83;;;0.87;;
78740;SDS011;68062;48.726;9.370;2024-03-23T13:58:54;1.00;;;0.50;;
78740;SDS011;68062;48.726;9.370;2024-03-23T14:01:22;1.37;;;0.60;;
78740;SDS011;68062;48.726;9.370;2024-03-23T14:03:49;2.37;;;1.33;;
78740;SDS011;68062;48.726;9.370;2024-03-23T14:06:15;3.47;;;0.90;;
78740;SDS011;68062;48.726;9.370;2024-03-23T14:08:42;1.70;;;0.77;;
78740;SDS011;68062;48.726;9.370;2024-03-23T14:11:08;2.13;;;0.90;;
78740;SDS011;68062;48.726;9.370;2024-03-23T14:13:36;2.83;;;0.97;;
78740;SDS011;68062;48.726;9.370;2024-03-23T14:16:02;3.40;;;1.10;;
78740;SDS011;68062;48.726;9.370;2024-03-23T14:18:31;3.37;;;1.43;;
78740;SDS011;68062;48.726;9.370;2024-03-23T14:20:57;1.90;;;1.53;;
78740;SDS011;68062;48.726;9.370;2024-03-23T14:23:25;6.63;;;1.77;;
78740;SDS011;68062;48.726;9.370;2024-03-23T14:25:52;4.50;;;1.87;;
78740;SDS011;68062;48.726;9.370;2024-03-23T14:28:19;3.30;;;2.37;;
78740;SDS011;68062;48.726;9.370;2024-03-23T14:30:45;12.47;;;2.07;;
78740;SDS011;68062;48.726;9.370;2024-03-23T14:33:12;2.80;;;1.43;;
78740;SDS011;68062;48.726;9.370;2024-03-23T14:35:39;4.00;;;1.47;;
78740;SDS011;68062;48.726;9.370;2024-03-23T14:38:06;1.63;;;1.40;;
78740;SDS011;68062;48.726;9.370;2024-03-23T14:40:32;2.83;;;1.47;;
78740;SDS011;68062;48.726;9.370;2024-03-23T14:42:58;1.93;;;1.30;;
78740;SDS011;68062;48.726;9.370;2024-03-23T14:45:25;1.37;;;1.27;;
78740;SDS011;68062;48.726;9.370;2024-03-23T14:47:52;1.77;;;0.90;;
78740;SDS011;68062;48.726;9.370;2024-03-23T14:50:18;1.53;;;1.10;;
78740;SDS011;68062;48.726;9.370;2024-03-23T14:52:46;1.40;;;1.00;;
78740;SDS011;68062;48.726;9.370;2024-03-23T14:55:12;1.67;;;0.80;;
78740;SDS011;68062;48.726;9.370;2024-03-23T14:57:39;1.53;;;0.70;;
78740;SDS011;68062;48.726;9.370;2024-03-23T15:00:06;2.00;;;1.10;;
78740;SDS011;68062;48.726;9.370;2024-03-23T15:02:35;1.30;;;0.80;;
78740;SDS011;68062;48.726;9.370;2024-03-23T15:05:01;1.27;;;0.97;;
78740;SDS011;68062;48.726;9.370;2024-03-23T15:07:29;1.37;;;0.97;;
78740;SDS011;68062;48.726;9.370;2024-03-23T15:09:57;2.67;;;0.90;;
78740;SDS011;68062;48.726;9.370;2024-03-23T15:12:23;2.87;;;1.50;;
78740;SDS011;68062;48.726;9.370;2024-03-23T15:14:49;2.20;;;1.03;;
78740;SDS011;68062;48.726;9.370;2024-03-23T15:17:16;3.03;;;1.10;;
78740;SDS011;68062;48.726;9.370;2024-03-23T15:19:42;2.60;;;1.00;;
78740;SDS011;68062;48.726;9.370;2024-03-23T15:22:09;3.33;;;0.90;;
78740;SDS011;68062;48.726;9.370;2024-03-23T15:24:35;2.83;;;1.03;;
78740;SDS011;68062;48.726;9.370;2024-03-23T15:27:04;1.90;;;1.53;;
78740;SDS011;68062;48.726;9.370;2024-03-23T15:29:30;1.90;;;0.97;;
78740;SDS011;68062;48.726;9.370;2024-03-23T15:31:57;2.87;;;1.30;;
78740;SDS011;68062;48.726;9.370;2024-03-23T15:34:23;2.20;;;1.00;;
78740;SDS011;68062;48.726;9.370;2024-03-23T15:36:49;1.97;;;0.90;;
78740;SDS011;68062;48.726;9.370;2024-03-23T15:39:16;3.30;;;1.60;;
78740;SDS011;68062;48.726;9.370;2024-03-23T15:41:46;2.67;;;1.30;;
78740;SDS011;68062;48.726;9.370;2024-03-23T15:44:13;1.43;;;1.00;;
78740;SDS011;68062;48.726;9.370;2024-03-23T15:46:40;1.53;;;1.00;;